sensor_id;sensor_type;location;lat;lon;timestamp;P1;durP1;ratioP1;P2;durP2;ratioP2
61391;SDS011;47261;52.892;5.738;2023-03-19T00:02:19;4.43;;;0.73;;
61391;SDS011;47261;52.892;5.738;2023-03-19T00:04:45;2.35;;;0.73;;
61391;SDS011;47261;52.892;5.738;2023-03-19T00:07:12;3.20;;;0.80;;
61391;SDS011;47261;52.892;5.738;2023-03-19T00:09:38;3.65;;;0.70;;
61391;SDS011;47261;52.892;5.738;2023-03-19T00:12:04;2.30;;;0.70;;
61391;SDS011;47261;52.892;5.738;2023-03-19T00:14:30;3.25;;;0.80;;
61391;SDS011;47261;52.892;5.738;2023-03-19T00:16:56;2.75;;;0.52;;
61391;SDS011;47261;52.892;5.738;2023-03-19T00:19:22;3.30;;;0.87;;
61391;SDS011;47261;52.892;5.738;2023-03-19T00:21:47;4.70;;;1.07;;
61391;SDS011;47261;52.892;5.738;2023-03-19T00:24:13;3.57;;;0.87;;
61391;SDS011;47261;52.892;5.738;2023-03-19T00:26:40;2.83;;;0.77;;
61391;SDS011;47261;52.892;5.738;2023-03-19T00:29:05;4.00;;;1.03;;
61391;SDS011;47261;52.892;5.738;2023-03-19T00:31:31;5.23;;;1.20;;
61391;SDS011;47261;52.892;5.738;2023-03-19T00:33:57;3.43;;;1.10;;
61391;SDS011;47261;52.892;5.738;2023-03-19T00:36:24;3.90;;;1.10;;
61391;SDS011;47261;52.892;5.738;2023-03-19T00:38:52;4.93;;;1.20;;
61391;SDS011;47261;52.892;5.738;2023-03-19T00:41:18;3.47;;;1.20;;
61391;SDS011;47261;52.892;5.738;2023-03-19T00:43:44;4.10;;;1.08;;
61391;SDS011;47261;52.892;5.738;2023-03-19T00:46:10;3.95;;;1.30;;
61391;SDS011;47261;52.892;5.738;2023-03-19T00:48:36;3.87;;;1.10;;
61391;SDS011;47261;52.892;5.738;2023-03-19T00:51:06;3.55;;;1.17;;
61391;SDS011;47261;52.892;5.738;2023-03-19T00:53:36;2.88;;;0.80;;
61391;SDS011;47261;52.892;5.738;2023-03-19T00:56:03;3.63;;;0.93;;
61391;SDS011;47261;52.892;5.738;2023-03-19T00:58:29;4.95;;;1.00;;
61391;SDS011;47261;52.892;5.738;2023-03-19T01:00:55;7.63;;;1.27;;
61391;SDS011;47261;52.892;5.738;2023-03-19T01:03:21;5.47;;;1.43;;
61391;SDS011;47261;52.892;5.738;2023-03-19T01:05:47;4.28;;;1.40;;
61391;SDS011;47261;52.892;5.738;2023-03-19T01:08:14;6.25;;;1.50;;
61391;SDS011;47261;52.892;5.738;2023-03-19T01:10:41;5.53;;;2.10;;
61391;SDS011;47261;52.892;5.738;2023-03-19T01:13:07;7.93;;;2.08;;
61391;SDS011;47261;52.892;5.738;2023-03-19T01:15:36;6.35;;;2.20;;
61391;SDS011;47261;52.892;5.738;2023-03-19T01:18:03;6.80;;;2.57;;
61391;SDS011;47261;52.892;5.738;2023-03-19T01:20:29;5.25;;;2.15;;
61391;SDS011;47261;52.892;5.738;2023-03-19T01:22:55;10.70;;;3.45;;
61391;SDS011;47261;52.892;5.738;2023-03-19T01:25:21;7.05;;;3.00;;
61391;SDS011;47261;52.892;5.738;2023-03-19T01:27:47;9.23;;;3.30;;
61391;SDS011;47261;52.892;5.738;2023-03-19T01:30:12;9.07;;;3.30;;
61391;SDS011;47261;52.892;5.738;2023-03-19T01:32:39;9.00;;;3.43;;
61391;SDS011;47261;52.892;5.738;2023-03-19T01:35:05;6.82;;;2.60;;
61391;SDS011;47261;52.892;5.738;2023-03-19T01:37:31;7.63;;;2.85;;
61391;SDS011;47261;52.892;5.738;2023-03-19T01:39:57;9.77;;;3.50;;
61391;SDS011;47261;52.892;5.738;2023-03-19T01:42:23;9.77;;;3.53;;
61391;SDS011;47261;52.892;5.738;2023-03-19T01:44:49;8.20;;;3.45;;
61391;SDS011;47261;52.892;5.738;2023-03-19T01:47:21;7.00;;;2.43;;
61391;SDS011;47261;52.892;5.738;2023-03-19T01:49:58;5.40;;;1.98;;
61391;SDS011;47261;52.892;5.738;2023-03-19T01:52:26;5.43;;;2.35;;
61391;SDS011;47261;52.892;5.738;2023-03-19T01:54:55;7.90;;;2.60;;
61391;SDS011;47261;52.892;5.738;2023-03-19T01:57:23;6.97;;;2.30;;
61391;SDS011;47261;52.892;5.738;2023-03-19T01:59:50;7.75;;;3.05;;
61391;SDS011;47261;52.892;5.738;2023-03-19T02:02:26;6.68;;;2.55;;
61391;SDS011;47261;52.892;5.738;2023-03-19T02:04:55;6.45;;;2.00;;
61391;SDS011;47261;52.892;5.738;2023-03-19T02:07:24;6.47;;;1.95;;
61391;SDS011;47261;52.892;5.738;2023-03-19T02:09:51;7.27;;;2.57;;
61391;SDS011;47261;52.892;5.738;2023-03-19T02:12:17;9.10;;;2.95;;
61391;SDS011;47261;52.892;5.738;2023-03-19T02:14:43;9.73;;;4.18;;
61391;SDS011;47261;52.892;5.738;2023-03-19T02:17:09;8.03;;;2.87;;
61391;SDS011;47261;52.892;5.738;2023-03-19T02:22:26;6.72;;;2.85;;
61391;SDS011;47261;52.892;5.738;2023-03-19T02:25:10;7.53;;;2.43;;
61391;SDS011;47261;52.892;5.738;2023-03-19T02:27:41;6.72;;;3.03;;
61391;SDS011;47261;52.892;5.738;2023-03-19T02:30:24;8.10;;;3.20;;
61391;SDS011;47261;52.892;5.738;2023-03-19T02:32:51;7.90;;;3.00;;
61391;SDS011;47261;52.892;5.738;2023-03-19T02:35:17;8.90;;;3.90;;
61391;SDS011;47261;52.892;5.738;2023-03-19T02:37:43;8.68;;;4.05;;
61391;SDS011;47261;52.892;5.738;2023-03-19T02:40:11;9.27;;;4.03;;
61391;SDS011;47261;52.892;5.738;2023-03-19T02:42:41;11.43;;;4.35;;
61391;SDS011;47261;52.892;5.738;2023-03-19T02:45:06;8.97;;;4.43;;
61391;SDS011;47261;52.892;5.738;2023-03-19T02:47:32;11.75;;;5.20;;
61391;SDS011;47261;52.892;5.738;2023-03-19T02:49:58;9.93;;;4.77;;
61391;SDS011;47261;52.892;5.738;2023-03-19T02:52:24;10.70;;;4.80;;
61391;SDS011;47261;52.892;5.738;2023-03-19T02:54:49;11.00;;;4.70;;
61391;SDS011;47261;52.892;5.738;2023-03-19T02:57:15;9.57;;;4.95;;
61391;SDS011;47261;52.892;5.738;2023-03-19T02:59:41;11.83;;;4.80;;
61391;SDS011;47261;52.892;5.738;2023-03-19T03:02:06;10.90;;;4.50;;
61391;SDS011;47261;52.892;5.738;2023-03-19T03:04:32;14.32;;;6.15;;
61391;SDS011;47261;52.892;5.738;2023-03-19T03:06:59;12.32;;;6.15;;
61391;SDS011;47261;52.892;5.738;2023-03-19T03:09:24;17.03;;;8.43;;
61391;SDS011;47261;52.892;5.738;2023-03-19T03:11:51;12.73;;;5.88;;
61391;SDS011;47261;52.892;5.738;2023-03-19T03:14:17;11.18;;;5.93;;
61391;SDS011;47261;52.892;5.738;2023-03-19T03:16:42;16.27;;;6.17;;
61391;SDS011;47261;52.892;5.738;2023-03-19T03:19:08;17.92;;;9.15;;
61391;SDS011;47261;52.892;5.738;2023-03-19T03:21:35;18.73;;;9.38;;
61391;SDS011;47261;52.892;5.738;2023-03-19T03:24:01;12.00;;;6.45;;
61391;SDS011;47261;52.892;5.738;2023-03-19T03:26:27;18.23;;;8.60;;
61391;SDS011;47261;52.892;5.738;2023-03-19T03:28:53;17.40;;;8.60;;
61391;SDS011;47261;52.892;5.738;2023-03-19T03:31:18;16.33;;;8.23;;
61391;SDS011;47261;52.892;5.738;2023-03-19T03:33:45;27.75;;;13.48;;
61391;SDS011;47261;52.892;5.738;2023-03-19T03:36:11;24.90;;;11.90;;
61391;SDS011;47261;52.892;5.738;2023-03-19T03:38:36;24.42;;;11.25;;
61391;SDS011;47261;52.892;5.738;2023-03-19T03:41:02;22.38;;;12.43;;
61391;SDS011;47261;52.892;5.738;2023-03-19T03:43:28;20.92;;;9.18;;
61391;SDS011;47261;52.892;5.738;2023-03-19T03:45:54;23.63;;;11.97;;
61391;SDS011;47261;52.892;5.738;2023-03-19T03:48:20;20.00;;;10.63;;
61391;SDS011;47261;52.892;5.738;2023-03-19T03:50:46;24.20;;;10.70;;
61391;SDS011;47261;52.892;5.738;2023-03-19T03:53:12;17.00;;;7.82;;
61391;SDS011;47261;52.892;5.738;2023-03-19T03:55:38;16.73;;;9.20;;
61391;SDS011;47261;52.892;5.738;2023-03-19T03:58:04;19.48;;;9.77;;
61391;SDS011;47261;52.892;5.738;2023-03-19T04:00:30;17.97;;;8.87;;
61391;SDS011;47261;52.892;5.738;2023-03-19T04:02:56;24.73;;;12.38;;
61391;SDS011;47261;52.892;5.738;2023-03-19T04:05:21;22.37;;;10.60;;
61391;SDS011;47261;52.892;5.738;2023-03-19T04:07:47;20.83;;;8.35;;
61391;SDS011;47261;52.892;5.738;2023-03-19T04:10:13;18.07;;;7.93;;
61391;SDS011;47261;52.892;5.738;2023-03-19T04:12:39;24.48;;;11.93;;
61391;SDS011;47261;52.892;5.738;2023-03-19T04:15:06;20.92;;;9.50;;
61391;SDS011;47261;52.892;5.738;2023-03-19T04:17:33;19.90;;;9.73;;
61391;SDS011;47261;52.892;5.738;2023-03-19T04:19:59;28.17;;;14.07;;
61391;SDS011;47261;52.892;5.738;2023-03-19T04:22:28;31.55;;;15.43;;
61391;SDS011;47261;52.892;5.738;2023-03-19T04:24:54;28.48;;;14.20;;
61391;SDS011;47261;52.892;5.738;2023-03-19T04:27:20;33.27;;;15.83;;
61391;SDS011;47261;52.892;5.738;2023-03-19T04:29:46;34.28;;;15.63;;
61391;SDS011;47261;52.892;5.738;2023-03-19T04:32:11;28.20;;;14.27;;
61391;SDS011;47261;52.892;5.738;2023-03-19T04:34:37;29.88;;;14.63;;
61391;SDS011;47261;52.892;5.738;2023-03-19T04:37:03;36.03;;;14.53;;
61391;SDS011;47261;52.892;5.738;2023-03-19T04:39:28;32.70;;;15.10;;
61391;SDS011;47261;52.892;5.738;2023-03-19T04:41:54;35.53;;;16.40;;
61391;SDS011;47261;52.892;5.738;2023-03-19T04:44:21;36.75;;;15.98;;
61391;SDS011;47261;52.892;5.738;2023-03-19T04:46:47;37.05;;;16.00;;
61391;SDS011;47261;52.892;5.738;2023-03-19T04:49:13;43.20;;;18.20;;
61391;SDS011;47261;52.892;5.738;2023-03-19T04:51:39;42.67;;;17.80;;
61391;SDS011;47261;52.892;5.738;2023-03-19T04:54:06;42.42;;;17.45;;
61391;SDS011;47261;52.892;5.738;2023-03-19T04:56:32;44.00;;;18.02;;
61391;SDS011;47261;52.892;5.738;2023-03-19T04:58:58;47.50;;;18.30;;
61391;SDS011;47261;52.892;5.738;2023-03-19T05:01:23;47.03;;;17.90;;
61391;SDS011;47261;52.892;5.738;2023-03-19T05:03:50;46.75;;;17.63;;
61391;SDS011;47261;52.892;5.738;2023-03-19T05:06:16;49.10;;;17.92;;
61391;SDS011;47261;52.892;5.738;2023-03-19T05:08:41;53.77;;;18.83;;
61391;SDS011;47261;52.892;5.738;2023-03-19T05:11:07;46.75;;;16.38;;
61391;SDS011;47261;52.892;5.738;2023-03-19T05:13:33;43.50;;;16.07;;
61391;SDS011;47261;52.892;5.738;2023-03-19T05:15:58;48.90;;;17.60;;
61391;SDS011;47261;52.892;5.738;2023-03-19T05:18:24;51.93;;;17.03;;
61391;SDS011;47261;52.892;5.738;2023-03-19T05:20:50;49.10;;;17.63;;
61391;SDS011;47261;52.892;5.738;2023-03-19T05:23:15;46.10;;;16.10;;
61391;SDS011;47261;52.892;5.738;2023-03-19T05:25:42;46.25;;;17.25;;
61391;SDS011;47261;52.892;5.738;2023-03-19T05:28:07;49.77;;;16.73;;
61391;SDS011;47261;52.892;5.738;2023-03-19T05:30:33;51.17;;;17.95;;
61391;SDS011;47261;52.892;5.738;2023-03-19T05:33:00;52.33;;;16.98;;
61391;SDS011;47261;52.892;5.738;2023-03-19T05:35:26;48.33;;;15.13;;
61391;SDS011;47261;52.892;5.738;2023-03-19T05:37:53;52.80;;;16.75;;
61391;SDS011;47261;52.892;5.738;2023-03-19T05:40:19;51.13;;;16.02;;
61391;SDS011;47261;52.892;5.738;2023-03-19T05:42:46;50.22;;;15.95;;
61391;SDS011;47261;52.892;5.738;2023-03-19T05:45:11;47.23;;;15.40;;
61391;SDS011;47261;52.892;5.738;2023-03-19T05:47:37;46.13;;;15.80;;
61391;SDS011;47261;52.892;5.738;2023-03-19T05:50:03;51.17;;;15.33;;
61391;SDS011;47261;52.892;5.738;2023-03-19T05:52:30;48.33;;;15.75;;
61391;SDS011;47261;52.892;5.738;2023-03-19T05:54:56;52.42;;;15.90;;
61391;SDS011;47261;52.892;5.738;2023-03-19T05:57:22;53.90;;;15.63;;
61391;SDS011;47261;52.892;5.738;2023-03-19T05:59:47;43.53;;;15.18;;
61391;SDS011;47261;52.892;5.738;2023-03-19T06:02:13;45.20;;;15.97;;
61391;SDS011;47261;52.892;5.738;2023-03-19T06:04:39;42.97;;;15.40;;
61391;SDS011;47261;52.892;5.738;2023-03-19T06:07:05;45.93;;;15.53;;
61391;SDS011;47261;52.892;5.738;2023-03-19T06:09:30;47.53;;;16.40;;
61391;SDS011;47261;52.892;5.738;2023-03-19T06:11:56;44.87;;;15.30;;
61391;SDS011;47261;52.892;5.738;2023-03-19T06:14:22;48.92;;;16.38;;
61391;SDS011;47261;52.892;5.738;2023-03-19T06:16:48;38.47;;;14.38;;
61391;SDS011;47261;52.892;5.738;2023-03-19T06:19:13;43.27;;;15.83;;
61391;SDS011;47261;52.892;5.738;2023-03-19T06:21:39;36.23;;;14.00;;
61391;SDS011;47261;52.892;5.738;2023-03-19T06:24:05;37.27;;;15.17;;
61391;SDS011;47261;52.892;5.738;2023-03-19T06:26:31;34.17;;;14.05;;
61391;SDS011;47261;52.892;5.738;2023-03-19T06:28:57;34.42;;;14.30;;
61391;SDS011;47261;52.892;5.738;2023-03-19T06:31:23;34.27;;;13.93;;
61391;SDS011;47261;52.892;5.738;2023-03-19T06:33:48;24.15;;;9.70;;
61391;SDS011;47261;52.892;5.738;2023-03-19T06:36:15;32.50;;;13.43;;
61391;SDS011;47261;52.892;5.738;2023-03-19T06:38:41;35.80;;;13.50;;
61391;SDS011;47261;52.892;5.738;2023-03-19T06:41:07;27.58;;;11.27;;
61391;SDS011;47261;52.892;5.738;2023-03-19T06:43:33;32.08;;;12.30;;
61391;SDS011;47261;52.892;5.738;2023-03-19T06:46:04;36.20;;;15.63;;
61391;SDS011;47261;52.892;5.738;2023-03-19T06:48:31;35.00;;;12.50;;
61391;SDS011;47261;52.892;5.738;2023-03-19T06:50:57;28.85;;;11.73;;
61391;SDS011;47261;52.892;5.738;2023-03-19T06:53:23;31.23;;;11.75;;
61391;SDS011;47261;52.892;5.738;2023-03-19T06:55:49;37.90;;;15.80;;
61391;SDS011;47261;52.892;5.738;2023-03-19T06:58:15;37.35;;;16.73;;
61391;SDS011;47261;52.892;5.738;2023-03-19T07:00:40;32.53;;;13.20;;
61391;SDS011;47261;52.892;5.738;2023-03-19T07:03:06;22.38;;;9.85;;
61391;SDS011;47261;52.892;5.738;2023-03-19T07:05:32;31.48;;;12.68;;
61391;SDS011;47261;52.892;5.738;2023-03-19T07:07:58;30.83;;;14.47;;
61391;SDS011;47261;52.892;5.738;2023-03-19T07:10:24;30.00;;;12.13;;
61391;SDS011;47261;52.892;5.738;2023-03-19T07:12:49;50.27;;;18.53;;
61391;SDS011;47261;52.892;5.738;2023-03-19T07:15:15;26.10;;;12.98;;
61391;SDS011;47261;52.892;5.738;2023-03-19T07:17:41;45.45;;;17.92;;
61391;SDS011;47261;52.892;5.738;2023-03-19T07:20:10;56.30;;;19.97;;
61391;SDS011;47261;52.892;5.738;2023-03-19T07:22:36;29.55;;;12.57;;
61391;SDS011;47261;52.892;5.738;2023-03-19T07:25:02;45.85;;;17.75;;
61391;SDS011;47261;52.892;5.738;2023-03-19T07:27:28;24.70;;;11.03;;
61391;SDS011;47261;52.892;5.738;2023-03-19T07:29:53;31.48;;;13.68;;
61391;SDS011;47261;52.892;5.738;2023-03-19T07:32:19;46.80;;;16.63;;
61391;SDS011;47261;52.892;5.738;2023-03-19T07:34:46;48.10;;;20.13;;
61391;SDS011;47261;52.892;5.738;2023-03-19T07:37:12;34.13;;;14.45;;
61391;SDS011;47261;52.892;5.738;2023-03-19T07:39:37;49.43;;;20.63;;
61391;SDS011;47261;52.892;5.738;2023-03-19T07:42:03;39.75;;;16.27;;
61391;SDS011;47261;52.892;5.738;2023-03-19T07:44:29;35.70;;;15.27;;
61391;SDS011;47261;52.892;5.738;2023-03-19T07:46:55;39.40;;;16.53;;
61391;SDS011;47261;52.892;5.738;2023-03-19T07:49:21;30.50;;;13.32;;
61391;SDS011;47261;52.892;5.738;2023-03-19T07:51:47;49.57;;;18.33;;
61391;SDS011;47261;52.892;5.738;2023-03-19T07:54:13;38.25;;;15.02;;
61391;SDS011;47261;52.892;5.738;2023-03-19T07:56:39;42.60;;;16.17;;
61391;SDS011;47261;52.892;5.738;2023-03-19T07:59:05;39.10;;;13.63;;
61391;SDS011;47261;52.892;5.738;2023-03-19T08:01:31;40.37;;;15.33;;
61391;SDS011;47261;52.892;5.738;2023-03-19T08:03:56;32.67;;;13.23;;
61391;SDS011;47261;52.892;5.738;2023-03-19T08:06:22;40.27;;;15.60;;
61391;SDS011;47261;52.892;5.738;2023-03-19T08:08:48;58.00;;;20.37;;
61391;SDS011;47261;52.892;5.738;2023-03-19T08:11:14;40.60;;;12.90;;
61391;SDS011;47261;52.892;5.738;2023-03-19T08:13:39;26.63;;;10.45;;
61391;SDS011;47261;52.892;5.738;2023-03-19T08:16:06;35.40;;;13.70;;
61391;SDS011;47261;52.892;5.738;2023-03-19T08:18:32;29.08;;;11.77;;
61391;SDS011;47261;52.892;5.738;2023-03-19T08:20:58;52.30;;;18.10;;
61391;SDS011;47261;52.892;5.738;2023-03-19T08:23:24;42.10;;;16.07;;
61391;SDS011;47261;52.892;5.738;2023-03-19T08:25:51;38.90;;;13.00;;
61391;SDS011;47261;52.892;5.738;2023-03-19T08:28:18;32.50;;;12.50;;
61391;SDS011;47261;52.892;5.738;2023-03-19T08:30:44;53.35;;;17.50;;
61391;SDS011;47261;52.892;5.738;2023-03-19T08:33:10;30.17;;;11.80;;
61391;SDS011;47261;52.892;5.738;2023-03-19T08:35:36;35.17;;;15.63;;
61391;SDS011;47261;52.892;5.738;2023-03-19T08:38:02;32.40;;;15.48;;
61391;SDS011;47261;52.892;5.738;2023-03-19T08:40:27;43.93;;;17.77;;
61391;SDS011;47261;52.892;5.738;2023-03-19T08:42:53;37.30;;;14.23;;
61391;SDS011;47261;52.892;5.738;2023-03-19T08:45:20;39.25;;;14.05;;
61391;SDS011;47261;52.892;5.738;2023-03-19T08:47:46;41.93;;;15.07;;
61391;SDS011;47261;52.892;5.738;2023-03-19T08:50:12;45.03;;;16.00;;
61391;SDS011;47261;52.892;5.738;2023-03-19T08:52:38;62.22;;;16.73;;
61391;SDS011;47261;52.892;5.738;2023-03-19T08:55:04;78.20;;;20.97;;
61391;SDS011;47261;52.892;5.738;2023-03-19T08:57:32;39.45;;;16.38;;
61391;SDS011;47261;52.892;5.738;2023-03-19T08:59:58;68.63;;;19.15;;
61391;SDS011;47261;52.892;5.738;2023-03-19T09:02:24;51.83;;;16.02;;
61391;SDS011;47261;52.892;5.738;2023-03-19T09:04:49;53.33;;;15.10;;
61391;SDS011;47261;52.892;5.738;2023-03-19T09:07:15;42.75;;;16.70;;
61391;SDS011;47261;52.892;5.738;2023-03-19T09:09:41;66.67;;;16.83;;
61391;SDS011;47261;52.892;5.738;2023-03-19T09:12:08;53.13;;;15.77;;
61391;SDS011;47261;52.892;5.738;2023-03-19T09:14:37;87.57;;;21.50;;
61391;SDS011;47261;52.892;5.738;2023-03-19T09:17:03;38.50;;;13.30;;
61391;SDS011;47261;52.892;5.738;2023-03-19T09:19:29;40.13;;;10.83;;
61391;SDS011;47261;52.892;5.738;2023-03-19T09:21:55;66.82;;;19.15;;
61391;SDS011;47261;52.892;5.738;2023-03-19T09:24:21;57.63;;;16.92;;
61391;SDS011;47261;52.892;5.738;2023-03-19T09:26:47;56.83;;;17.20;;
61391;SDS011;47261;52.892;5.738;2023-03-19T09:29:13;61.10;;;16.92;;
61391;SDS011;47261;52.892;5.738;2023-03-19T09:31:39;58.78;;;18.48;;
61391;SDS011;47261;52.892;5.738;2023-03-19T09:34:05;72.83;;;18.07;;
61391;SDS011;47261;52.892;5.738;2023-03-19T09:36:32;51.17;;;16.70;;
61391;SDS011;47261;52.892;5.738;2023-03-19T09:38:59;66.10;;;17.48;;
61391;SDS011;47261;52.892;5.738;2023-03-19T09:41:38;61.03;;;17.35;;
61391;SDS011;47261;52.892;5.738;2023-03-19T09:44:46;81.97;;;19.03;;
61391;SDS011;47261;52.892;5.738;2023-03-19T09:49:43;45.55;;;18.50;;
61391;SDS011;47261;52.892;5.738;2023-03-19T09:52:23;60.63;;;16.20;;
61391;SDS011;47261;52.892;5.738;2023-03-19T09:55:00;44.00;;;14.35;;
61391;SDS011;47261;52.892;5.738;2023-03-19T09:57:38;53.53;;;17.33;;
61391;SDS011;47261;52.892;5.738;2023-03-19T10:00:09;70.53;;;17.08;;
61391;SDS011;47261;52.892;5.738;2023-03-19T10:08:24;34.00;;;11.32;;
61391;SDS011;47261;52.892;5.738;2023-03-19T10:16:32;45.83;;;13.17;;
61391;SDS011;47261;52.892;5.738;2023-03-19T10:19:01;39.45;;;11.25;;
61391;SDS011;47261;52.892;5.738;2023-03-19T10:21:32;35.25;;;11.88;;
61391;SDS011;47261;52.892;5.738;2023-03-19T10:24:11;31.33;;;9.50;;
61391;SDS011;47261;52.892;5.738;2023-03-19T10:26:43;38.33;;;12.50;;
61391;SDS011;47261;52.892;5.738;2023-03-19T10:29:13;50.93;;;14.20;;
61391;SDS011;47261;52.892;5.738;2023-03-19T10:32:02;46.67;;;12.25;;
61391;SDS011;47261;52.892;5.738;2023-03-19T10:34:46;29.25;;;9.15;;
61391;SDS011;47261;52.892;5.738;2023-03-19T10:39:49;43.10;;;13.63;;
61391;SDS011;47261;52.892;5.738;2023-03-19T10:47:58;36.75;;;10.38;;
61391;SDS011;47261;52.892;5.738;2023-03-19T10:50:31;46.95;;;12.48;;
61391;SDS011;47261;52.892;5.738;2023-03-19T10:53:05;42.53;;;13.15;;
61391;SDS011;47261;52.892;5.738;2023-03-19T10:56:05;30.87;;;9.67;;
61391;SDS011;47261;52.892;5.738;2023-03-19T11:01:30;36.75;;;11.70;;
61391;SDS011;47261;52.892;5.738;2023-03-19T11:04:01;58.53;;;14.77;;
61391;SDS011;47261;52.892;5.738;2023-03-19T11:06:41;29.67;;;9.43;;
61391;SDS011;47261;52.892;5.738;2023-03-19T11:09:25;37.77;;;12.03;;
61391;SDS011;47261;52.892;5.738;2023-03-19T11:12:05;40.65;;;10.18;;
61391;SDS011;47261;52.892;5.738;2023-03-19T11:14:51;31.83;;;9.35;;
61391;SDS011;47261;52.892;5.738;2023-03-19T11:17:27;40.63;;;11.60;;
61391;SDS011;47261;52.892;5.738;2023-03-19T11:20:12;39.55;;;11.02;;
61391;SDS011;47261;52.892;5.738;2023-03-19T11:22:43;50.03;;;13.30;;
61391;SDS011;47261;52.892;5.738;2023-03-19T11:25:25;56.55;;;14.95;;
61391;SDS011;47261;52.892;5.738;2023-03-19T11:30:51;41.28;;;11.25;;
61391;SDS011;47261;52.892;5.738;2023-03-19T11:47:27;39.10;;;13.03;;
61391;SDS011;47261;52.892;5.738;2023-03-19T11:50:24;41.60;;;12.50;;
61391;SDS011;47261;52.892;5.738;2023-03-19T11:53:16;35.30;;;10.93;;
61391;SDS011;47261;52.892;5.738;2023-03-19T11:55:53;53.17;;;16.02;;
61391;SDS011;47261;52.892;5.738;2023-03-19T12:04:03;38.47;;;13.05;;
61391;SDS011;47261;52.892;5.738;2023-03-19T12:09:24;36.57;;;11.60;;
61391;SDS011;47261;52.892;5.738;2023-03-19T12:12:17;31.80;;;10.90;;
61391;SDS011;47261;52.892;5.738;2023-03-19T12:15:33;38.25;;;11.55;;
61391;SDS011;47261;52.892;5.738;2023-03-19T12:20:30;37.08;;;11.68;;
61391;SDS011;47261;52.892;5.738;2023-03-19T12:28:46;34.25;;;10.70;;
61391;SDS011;47261;52.892;5.738;2023-03-19T12:31:33;42.20;;;14.95;;
61391;SDS011;47261;52.892;5.738;2023-03-19T12:39:39;28.48;;;10.25;;
61391;SDS011;47261;52.892;5.738;2023-03-19T12:42:13;26.00;;;9.50;;
61391;SDS011;47261;52.892;5.738;2023-03-19T12:44:43;23.80;;;9.35;;
61391;SDS011;47261;52.892;5.738;2023-03-19T12:47:16;28.38;;;10.90;;
61391;SDS011;47261;52.892;5.738;2023-03-19T12:49:50;30.10;;;11.00;;
61391;SDS011;47261;52.892;5.738;2023-03-19T12:52:25;34.58;;;11.68;;
61391;SDS011;47261;52.892;5.738;2023-03-19T12:55:21;27.27;;;10.32;;
61391;SDS011;47261;52.892;5.738;2023-03-19T12:57:57;28.27;;;10.63;;
61391;SDS011;47261;52.892;5.738;2023-03-19T13:08:36;29.10;;;10.73;;
61391;SDS011;47261;52.892;5.738;2023-03-19T13:11:28;31.58;;;10.80;;
61391;SDS011;47261;52.892;5.738;2023-03-19T13:14:03;26.92;;;10.25;;
61391;SDS011;47261;52.892;5.738;2023-03-19T13:21:45;28.20;;;9.82;;
61391;SDS011;47261;52.892;5.738;2023-03-19T13:24:35;26.73;;;7.35;;
61391;SDS011;47261;52.892;5.738;2023-03-19T13:27:05;18.07;;;8.50;;
61391;SDS011;47261;52.892;5.738;2023-03-19T13:29:34;23.83;;;8.38;;
61391;SDS011;47261;52.892;5.738;2023-03-19T13:32:35;25.77;;;9.38;;
61391;SDS011;47261;52.892;5.738;2023-03-19T13:38:14;30.65;;;11.85;;
61391;SDS011;47261;52.892;5.738;2023-03-19T13:40:54;23.77;;;9.00;;
61391;SDS011;47261;52.892;5.738;2023-03-19T13:51:01;24.50;;;8.68;;
61391;SDS011;47261;52.892;5.738;2023-03-19T13:56:00;23.73;;;7.05;;
61391;SDS011;47261;52.892;5.738;2023-03-19T13:59:20;36.15;;;12.10;;
61391;SDS011;47261;52.892;5.738;2023-03-19T14:01:48;30.77;;;9.20;;
61391;SDS011;47261;52.892;5.738;2023-03-19T14:04:16;23.23;;;7.97;;
61391;SDS011;47261;52.892;5.738;2023-03-19T14:06:55;29.07;;;11.00;;
61391;SDS011;47261;52.892;5.738;2023-03-19T14:09:33;37.65;;;12.55;;
61391;SDS011;47261;52.892;5.738;2023-03-19T14:15:00;37.65;;;12.40;;
61391;SDS011;47261;52.892;5.738;2023-03-19T14:17:52;40.08;;;11.57;;
61391;SDS011;47261;52.892;5.738;2023-03-19T14:20:22;30.93;;;11.80;;
61391;SDS011;47261;52.892;5.738;2023-03-19T14:28:48;41.10;;;13.18;;
61391;SDS011;47261;52.892;5.738;2023-03-19T14:34:05;40.50;;;12.03;;
61391;SDS011;47261;52.892;5.738;2023-03-19T14:36:33;59.47;;;17.83;;
61391;SDS011;47261;52.892;5.738;2023-03-19T14:39:02;56.88;;;17.40;;
61391;SDS011;47261;52.892;5.738;2023-03-19T14:41:35;44.08;;;14.15;;
61391;SDS011;47261;52.892;5.738;2023-03-19T14:44:19;55.65;;;17.15;;
61391;SDS011;47261;52.892;5.738;2023-03-19T14:47:17;55.07;;;17.67;;
61391;SDS011;47261;52.892;5.738;2023-03-19T14:52:25;42.08;;;12.85;;
61391;SDS011;47261;52.892;5.738;2023-03-19T14:57:25;33.67;;;11.67;;
61391;SDS011;47261;52.892;5.738;2023-03-19T14:59:53;43.10;;;13.70;;
61391;SDS011;47261;52.892;5.738;2023-03-19T15:05:25;52.28;;;16.55;;
61391;SDS011;47261;52.892;5.738;2023-03-19T15:07:53;58.90;;;15.10;;
61391;SDS011;47261;52.892;5.738;2023-03-19T15:10:28;65.68;;;18.52;;
61391;SDS011;47261;52.892;5.738;2023-03-19T15:19:01;46.55;;;13.70;;
61391;SDS011;47261;52.892;5.738;2023-03-19T15:21:28;34.23;;;11.77;;
61391;SDS011;47261;52.892;5.738;2023-03-19T15:23:55;57.05;;;17.83;;
61391;SDS011;47261;52.892;5.738;2023-03-19T15:26:32;47.53;;;14.95;;
61391;SDS011;47261;52.892;5.738;2023-03-19T15:29:00;42.90;;;13.57;;
61391;SDS011;47261;52.892;5.738;2023-03-19T15:34:21;62.95;;;19.00;;
61391;SDS011;47261;52.892;5.738;2023-03-19T15:36:50;61.67;;;16.63;;
61391;SDS011;47261;52.892;5.738;2023-03-19T15:39:18;52.95;;;14.85;;
61391;SDS011;47261;52.892;5.738;2023-03-19T15:41:48;43.88;;;13.52;;
61391;SDS011;47261;52.892;5.738;2023-03-19T15:44:17;47.53;;;12.73;;
61391;SDS011;47261;52.892;5.738;2023-03-19T15:46:46;42.80;;;13.52;;
61391;SDS011;47261;52.892;5.738;2023-03-19T15:49:27;45.13;;;12.48;;
61391;SDS011;47261;52.892;5.738;2023-03-19T15:51:57;48.40;;;14.18;;
61391;SDS011;47261;52.892;5.738;2023-03-19T15:54:28;56.45;;;15.13;;
61391;SDS011;47261;52.892;5.738;2023-03-19T15:56:54;54.83;;;13.50;;
61391;SDS011;47261;52.892;5.738;2023-03-19T15:59:21;43.85;;;12.85;;
61391;SDS011;47261;52.892;5.738;2023-03-19T16:01:50;47.45;;;12.13;;
61391;SDS011;47261;52.892;5.738;2023-03-19T16:04:18;51.85;;;12.02;;
61391;SDS011;47261;52.892;5.738;2023-03-19T16:06:48;54.20;;;14.73;;
61391;SDS011;47261;52.892;5.738;2023-03-19T16:11:43;51.95;;;14.38;;
61391;SDS011;47261;52.892;5.738;2023-03-19T16:16:38;54.67;;;15.80;;
61391;SDS011;47261;52.892;5.738;2023-03-19T16:19:31;47.55;;;12.20;;
61391;SDS011;47261;52.892;5.738;2023-03-19T16:22:02;39.00;;;12.63;;
61391;SDS011;47261;52.892;5.738;2023-03-19T16:24:41;38.30;;;12.57;;
61391;SDS011;47261;52.892;5.738;2023-03-19T16:27:17;38.92;;;11.75;;
61391;SDS011;47261;52.892;5.738;2023-03-19T16:29:48;36.15;;;11.15;;
61391;SDS011;47261;52.892;5.738;2023-03-19T16:34:47;23.60;;;8.27;;
61391;SDS011;47261;52.892;5.738;2023-03-19T16:42:39;18.37;;;7.17;;
61391;SDS011;47261;52.892;5.738;2023-03-19T16:50:15;19.77;;;6.17;;
61391;SDS011;47261;52.892;5.738;2023-03-19T16:52:43;16.85;;;6.50;;
61391;SDS011;47261;52.892;5.738;2023-03-19T16:55:21;12.40;;;4.03;;
61391;SDS011;47261;52.892;5.738;2023-03-19T17:00:38;23.90;;;7.05;;
61391;SDS011;47261;52.892;5.738;2023-03-19T17:03:05;24.87;;;7.70;;
61391;SDS011;47261;52.892;5.738;2023-03-19T17:05:37;34.65;;;9.77;;